createdAt,value
2018-01-29T00:00:36.015Z,3.80
2018-01-29T00:03:05.448Z,4.10
2018-01-29T00:05:34.838Z,3.70
2018-01-29T00:08:04.428Z,3.70
2018-01-29T00:10:33.948Z,3.60
2018-01-29T00:13:03.618Z,3.80
2018-01-29T00:15:33.009Z,4.00
2018-01-29T00:18:02.478Z,3.70
2018-01-29T00:20:32.960Z,3.60
2018-01-29T00:23:02.338Z,3.60
2018-01-29T00:25:31.731Z,3.90
2018-01-29T00:28:01.711Z,4.10
2018-01-29T00:30:31.147Z,4.00
2018-01-29T00:33:00.894Z,4.00
2018-01-29T00:35:30.193Z,3.90
2018-01-29T00:37:59.493Z,3.70
2018-01-29T00:40:28.958Z,3.90
2018-01-29T00:42:59.442Z,3.80
2018-01-29T00:45:29.649Z,3.60
2018-01-29T00:47:59.345Z,3.60
2018-01-29T00:50:28.611Z,3.40
2018-01-29T00:52:58.040Z,2.80
2018-01-29T00:55:27.525Z,3.20
2018-01-29T00:57:56.914Z,3.50
2018-01-29T01:00:27.178Z,3.60
2018-01-29T01:02:56.681Z,3.60
2018-01-29T01:05:26.890Z,3.60
2018-01-29T01:08:00.118Z,3.50
2018-01-29T01:10:29.628Z,3.60
2018-01-29T01:12:59.152Z,3.20
2018-01-29T01:15:29.200Z,3.10
2018-01-29T01:17:58.760Z,3.00
2018-01-29T01:20:28.484Z,3.10
2018-01-29T01:22:57.888Z,2.30
2018-01-29T01:25:27.516Z,2.40
2018-01-29T01:27:57.199Z,2.60
2018-01-29T01:30:26.622Z,2.30
2018-01-29T01:32:55.993Z,2.10
2018-01-29T01:35:25.381Z,2.30
2018-01-29T01:37:55.635Z,2.70
2018-01-29T01:40:25.134Z,2.60
2018-01-29T01:42:54.479Z,2.60
2018-01-29T01:45:25.017Z,2.30
2018-01-29T01:47:54.312Z,2.30
2018-01-29T01:50:23.789Z,2.30
2018-01-29T01:52:53.152Z,2.00
2018-01-29T01:55:23.274Z,2.10
2018-01-29T01:57:53.794Z,2.30
2018-01-29T02:00:24.177Z,2.40
2018-01-29T02:02:54.272Z,2.40
2018-01-29T02:05:23.630Z,2.40
2018-01-29T02:07:52.881Z,2.40
2018-01-29T02:10:22.528Z,2.30
2018-01-29T02:12:52.723Z,2.10
2018-01-29T02:15:22.541Z,2.50
2018-01-29T02:17:51.931Z,2.50
2018-01-29T02:20:21.275Z,2.00
2018-01-29T02:22:50.864Z,2.00
2018-01-29T02:25:20.310Z,1.80
2018-01-29T02:27:49.690Z,1.90
2018-01-29T02:30:19.235Z,1.90
2018-01-29T02:32:48.995Z,1.80
2018-01-29T02:35:18.290Z,2.10
2018-01-29T02:37:48.247Z,2.00
2018-01-29T02:40:17.834Z,2.10
2018-01-29T02:42:47.120Z,2.20
2018-01-29T02:45:16.460Z,2.30
2018-01-29T02:47:46.306Z,1.80
2018-01-29T02:50:15.708Z,1.80
2018-01-29T02:52:45.534Z,2.40
2018-01-29T02:55:15.194Z,2.50
2018-01-29T02:57:44.875Z,2.50
2018-01-29T03:00:14.224Z,2.50
2018-01-29T03:02:43.523Z,2.40
2018-01-29T03:05:12.903Z,1.90
2018-01-29T03:07:42.467Z,2.30
2018-01-29T03:10:12.303Z,2.40
2018-01-29T03:12:41.859Z,1.80
2018-01-29T03:15:11.261Z,2.00
2018-01-29T03:17:41.578Z,2.40
2018-01-29T03:20:11.018Z,2.60
2018-01-29T03:22:40.837Z,2.10
2018-01-29T03:25:11.266Z,2.20
2018-01-29T03:27:41.321Z,2.20
2018-01-29T03:30:10.980Z,2.60
2018-01-29T03:32:41.364Z,2.20
2018-01-29T03:35:10.810Z,2.20
2018-01-29T03:37:40.252Z,1.80
2018-01-29T03:40:09.665Z,2.20
2018-01-29T03:42:39.240Z,2.10
2018-01-29T03:45:08.608Z,2.00
2018-01-29T03:47:38.135Z,2.20
2018-01-29T03:50:07.733Z,2.20
2018-01-29T03:52:37.164Z,2.20
2018-01-29T03:55:06.576Z,1.70
2018-01-29T03:57:36.356Z,1.70
2018-01-29T04:00:06.372Z,1.90
2018-01-29T04:02:35.789Z,1.80
2018-01-29T04:05:05.331Z,1.80
2018-01-29T04:07:34.959Z,1.90
2018-01-29T04:10:04.380Z,1.60
2018-01-29T04:12:34.499Z,1.90
2018-01-29T04:15:04.006Z,1.80
2018-01-29T04:17:33.494Z,2.00
2018-01-29T04:20:02.912Z,2.00
2018-01-29T04:22:32.472Z,1.80
2018-01-29T04:25:02.247Z,2.10
2018-01-29T04:27:31.752Z,1.90
2018-01-29T04:30:01.598Z,2.00
2018-01-29T04:32:31.262Z,1.90
2018-01-29T04:35:01.002Z,1.80
2018-01-29T04:37:30.780Z,2.10
2018-01-29T04:40:00.218Z,1.80
2018-01-29T04:42:30.070Z,1.50
2018-01-29T04:44:59.870Z,1.90
2018-01-29T04:47:29.740Z,1.80
2018-01-29T04:49:59.325Z,1.30
2018-01-29T04:52:29.788Z,1.70
2018-01-29T04:54:59.743Z,1.60
2018-01-29T05:00:10.367Z,1.30
2018-01-29T05:02:40.314Z,1.50
2018-01-29T05:05:09.753Z,1.70
2018-01-29T05:07:39.174Z,2.00
2018-01-29T05:10:08.579Z,1.80
2018-01-29T05:12:38.183Z,1.80
2018-01-29T05:15:07.553Z,2.00
2018-01-29T05:17:36.896Z,2.30
2018-01-29T05:20:29.928Z,1.80
2018-01-29T05:22:59.257Z,1.40
2018-01-29T05:25:28.604Z,1.30
2018-01-29T05:27:57.908Z,1.30
2018-01-29T05:30:27.309Z,1.30
2018-01-29T05:32:56.690Z,1.50
2018-01-29T05:35:44.415Z,1.50
2018-01-29T05:38:13.953Z,1.70
2018-01-29T05:40:44.146Z,1.70
2018-01-29T05:43:14.312Z,1.70
2018-01-29T05:45:43.782Z,1.70
2018-01-29T05:48:13.174Z,2.00
2018-01-29T05:50:42.594Z,2.10
2018-01-29T05:53:12.190Z,1.90
2018-01-29T05:55:41.657Z,1.80
2018-01-29T05:58:12.591Z,1.70
2018-01-29T06:00:42.747Z,1.80
2018-01-29T06:03:12.185Z,1.80
2018-01-29T06:05:41.811Z,1.70
2018-01-29T06:08:11.194Z,1.70
2018-01-29T06:10:40.484Z,1.70
2018-01-29T06:13:09.884Z,1.60
2018-01-29T06:15:39.452Z,1.90
2018-01-29T06:18:08.902Z,2.40
2018-01-29T06:20:38.284Z,2.10
2018-01-29T06:23:07.987Z,2.10
2018-01-29T06:25:37.695Z,2.40
2018-01-29T06:28:07.941Z,2.10
2018-01-29T06:30:37.251Z,2.10
2018-01-29T06:33:07.377Z,2.40
2018-01-29T06:35:36.895Z,2.40
2018-01-29T06:38:06.647Z,2.50
2018-01-29T06:40:36.888Z,2.20
2018-01-29T06:43:06.256Z,2.30
2018-01-29T06:45:35.923Z,2.20
2018-01-29T06:48:06.031Z,1.70
2018-01-29T06:50:35.498Z,1.70
2018-01-29T06:53:05.240Z,2.00
2018-01-29T06:55:34.909Z,2.00
2018-01-29T06:58:04.992Z,2.00
2018-01-29T07:00:34.534Z,2.00
2018-01-29T07:03:05.011Z,2.30
2018-01-29T07:05:41.499Z,2.20
2018-01-29T07:08:11.245Z,2.50
2018-01-29T07:10:40.742Z,2.60
2018-01-29T07:13:10.306Z,2.70
2018-01-29T07:15:39.823Z,2.70
2018-01-29T07:18:09.333Z,2.70
2018-01-29T07:20:40.640Z,2.30
2018-01-29T07:23:10.043Z,2.30
2018-01-29T07:25:39.564Z,2.30
2018-01-29T07:28:09.140Z,2.80
2018-01-29T07:30:39.357Z,3.20
2018-01-29T07:33:08.965Z,3.20
2018-01-29T07:35:39.450Z,3.60
2018-01-29T07:38:09.024Z,3.60
2018-01-29T07:40:38.469Z,3.60
2018-01-29T07:43:07.915Z,3.90
2018-01-29T07:45:38.522Z,4.00
2018-01-29T07:48:08.429Z,4.00
2018-01-29T07:50:38.273Z,4.20
2018-01-29T07:53:08.088Z,4.10
2018-01-29T07:55:38.156Z,3.80
2018-01-29T07:58:08.336Z,4.20
2018-01-29T08:00:38.130Z,4.60
2018-01-29T08:03:08.995Z,4.90
2018-01-29T08:05:39.219Z,4.90
2018-01-29T08:08:09.172Z,4.90
2018-01-29T08:10:38.717Z,5.10
2018-01-29T08:13:08.520Z,5.00
2018-01-29T08:15:38.513Z,5.20
2018-01-29T08:18:08.833Z,5.00
2018-01-29T08:20:38.477Z,5.00
2018-01-29T08:23:08.021Z,4.30
2018-01-29T08:25:37.418Z,4.30
2018-01-29T08:28:07.254Z,4.60
2018-01-29T08:30:36.937Z,4.80
2018-01-29T08:33:06.456Z,4.70
2018-01-29T08:35:36.126Z,4.90
2018-01-29T08:38:05.771Z,5.10
2018-01-29T08:40:35.378Z,4.80
2018-01-29T08:43:04.889Z,5.20
2018-01-29T08:45:34.650Z,5.30
2018-01-29T08:48:04.242Z,5.80
2018-01-29T08:50:34.661Z,5.90
2018-01-29T08:53:04.290Z,5.90
2018-01-29T08:55:33.957Z,6.20
2018-01-29T08:58:03.652Z,6.40
2018-01-29T09:00:33.555Z,6.80
2018-01-29T09:03:03.246Z,7.10
2018-01-29T09:05:34.035Z,7.30
2018-01-29T09:08:03.802Z,7.50
2018-01-29T09:10:33.233Z,7.30
2018-01-29T09:13:03.398Z,7.60
2018-01-29T09:15:33.317Z,7.60
2018-01-29T09:18:02.896Z,7.70
2018-01-29T09:20:32.736Z,7.90
2018-01-29T09:23:02.793Z,7.80
2018-01-29T09:25:32.738Z,7.90
2018-01-29T09:28:03.158Z,8.30
2018-01-29T09:30:32.548Z,8.50
2018-01-29T09:33:02.528Z,8.70
2018-01-29T09:35:32.846Z,8.80
2018-01-29T09:38:02.550Z,8.80
2018-01-29T09:40:32.210Z,9.00
2018-01-29T09:43:01.955Z,8.90
2018-01-29T09:45:31.550Z,9.00
2018-01-29T09:48:02.247Z,9.30
2018-01-29T09:50:32.817Z,9.70
2018-01-29T09:53:02.465Z,9.70
2018-01-29T09:55:32.817Z,10.00
2018-01-29T09:58:02.440Z,10.20
2018-01-29T10:00:33.276Z,10.30
2018-01-29T10:03:03.049Z,10.20
2018-01-29T10:05:32.970Z,10.40
2018-01-29T10:08:02.541Z,10.50
2018-01-29T10:10:32.368Z,10.50
2018-01-29T10:13:02.101Z,10.70
2018-01-29T10:15:31.911Z,11.00
2018-01-29T10:18:01.640Z,10.90
2018-01-29T10:20:31.791Z,10.60
2018-01-29T10:23:01.494Z,10.90
2018-01-29T10:25:31.459Z,10.90
2018-01-29T10:28:01.644Z,11.30
2018-01-29T10:30:32.218Z,11.50
2018-01-29T10:33:02.665Z,11.80
2018-01-29T10:35:33.958Z,11.80
2018-01-29T10:38:04.466Z,11.70
2018-01-29T10:40:34.219Z,11.20
2018-01-29T10:43:04.317Z,11.40
2018-01-29T10:45:34.688Z,11.70
2018-01-29T10:48:04.474Z,11.70
2018-01-29T10:50:34.193Z,11.80
2018-01-29T10:53:04.693Z,11.90
2018-01-29T10:55:34.802Z,12.10
2018-01-29T10:58:04.682Z,12.00
2018-01-29T11:00:39.868Z,12.40
2018-01-29T11:03:09.391Z,12.30
2018-01-29T11:05:40.287Z,12.70
2018-01-29T11:08:10.035Z,12.60
2018-01-29T11:10:39.759Z,12.70
2018-01-29T11:13:09.553Z,13.20
2018-01-29T11:18:15.891Z,14.00
2018-01-29T11:20:45.455Z,14.30
2018-01-29T11:23:15.294Z,14.20
2018-01-29T11:25:45.259Z,14.20
2018-01-29T11:28:14.838Z,14.40
2018-01-29T11:30:44.893Z,14.80
2018-01-29T11:33:15.777Z,15.50
2018-01-29T11:35:45.628Z,15.50
2018-01-29T11:38:15.426Z,15.60
2018-01-29T11:40:46.068Z,15.50
2018-01-29T11:43:15.690Z,14.90
2018-01-29T11:45:45.332Z,15.00
2018-01-29T11:48:15.950Z,15.30
2018-01-29T11:50:45.521Z,15.20
2018-01-29T11:53:15.171Z,15.20
2018-01-29T11:55:45.549Z,15.60
2018-01-29T11:58:15.042Z,15.60
2018-01-29T12:00:46.325Z,15.70
2018-01-29T12:03:16.038Z,16.10
2018-01-29T12:05:45.848Z,16.50
2018-01-29T12:08:15.760Z,15.90
2018-01-29T12:10:45.477Z,16.10
2018-01-29T12:13:16.097Z,16.30
2018-01-29T12:15:46.782Z,16.40
2018-01-29T12:18:17.218Z,16.50
2018-01-29T12:20:47.942Z,16.50
2018-01-29T12:23:18.262Z,16.60
2018-01-29T12:25:48.233Z,16.90
2018-01-29T12:28:18.137Z,16.70
2018-01-29T12:30:48.143Z,16.80
2018-01-29T12:33:18.103Z,16.90
2018-01-29T12:35:48.300Z,17.20
2018-01-29T12:38:18.363Z,17.00
2018-01-29T12:40:48.054Z,17.10
2018-01-29T12:43:17.535Z,17.20
2018-01-29T12:45:47.355Z,17.40
2018-01-29T12:48:17.528Z,17.60
2018-01-29T12:50:47.455Z,17.40
2018-01-29T12:53:17.377Z,17.30
2018-01-29T12:55:47.024Z,17.00
2018-01-29T12:58:16.550Z,17.20
2018-01-29T13:00:47.078Z,17.70
2018-01-29T13:03:17.083Z,17.70
2018-01-29T13:05:46.896Z,17.20
2018-01-29T13:08:17.275Z,17.10
2018-01-29T13:10:47.688Z,17.00
2018-01-29T13:13:17.200Z,17.60
2018-01-29T13:15:47.540Z,17.50
2018-01-29T13:18:17.929Z,17.50
2018-01-29T13:20:47.759Z,17.10
2018-01-29T13:23:17.456Z,16.80
2018-01-29T13:25:47.330Z,17.00
2018-01-29T13:28:18.479Z,17.10
2018-01-29T13:30:48.742Z,17.10
2018-01-29T13:33:18.824Z,17.10
2018-01-29T13:35:49.156Z,17.30
2018-01-29T13:38:18.897Z,17.00
2018-01-29T13:40:48.834Z,17.10
2018-01-29T13:43:18.409Z,17.50
2018-01-29T13:45:48.338Z,17.10
2018-01-29T13:48:17.836Z,16.70
2018-01-29T13:50:47.494Z,16.90
2018-01-29T13:53:18.222Z,17.00
2018-01-29T13:55:48.153Z,17.20
2018-01-29T13:58:17.669Z,16.90
2018-01-29T14:00:48.199Z,17.20
2018-01-29T14:03:18.142Z,17.30
2018-01-29T14:05:49.100Z,17.20
2018-01-29T14:08:18.688Z,17.00
2018-01-29T14:10:49.077Z,17.00
2018-01-29T14:13:18.532Z,17.30
2018-01-29T14:15:48.672Z,17.50
2018-01-29T14:18:18.503Z,17.00
2018-01-29T14:20:48.805Z,17.50
2018-01-29T14:23:18.946Z,17.50
2018-01-29T14:25:49.396Z,17.50
2018-01-29T14:28:19.427Z,17.40
2018-01-29T14:30:48.951Z,17.30
2018-01-29T14:33:19.213Z,17.40
2018-01-29T14:35:48.935Z,17.50
2018-01-29T14:38:18.939Z,17.40
2018-01-29T14:40:48.845Z,17.20
2018-01-29T14:43:18.515Z,17.20
2018-01-29T14:45:48.157Z,17.00
2018-01-29T14:48:17.928Z,16.60
2018-01-29T14:50:48.217Z,16.30
2018-01-29T14:53:18.578Z,16.60
2018-01-29T14:55:48.100Z,16.60
2018-01-29T14:58:17.729Z,16.50
2018-01-29T15:00:47.895Z,16.40
2018-01-29T15:03:17.704Z,16.40
2018-01-29T15:05:48.271Z,15.50
2018-01-29T15:08:18.177Z,15.50
2018-01-29T15:10:49.002Z,15.40
2018-01-29T15:13:19.009Z,15.40
2018-01-29T15:15:48.771Z,15.10
2018-01-29T15:18:18.303Z,14.90
2018-01-29T15:20:48.112Z,14.30
2018-01-29T15:23:17.825Z,14.00
2018-01-29T15:25:48.148Z,13.90
2018-01-29T15:28:20.791Z,13.90
2018-01-29T15:30:51.304Z,13.90
2018-01-29T15:33:21.163Z,13.90
2018-01-29T15:35:51.664Z,13.70
2018-01-29T15:38:21.437Z,13.80
2018-01-29T15:40:51.219Z,13.70
2018-01-29T15:43:24.881Z,13.00
2018-01-29T15:45:56.006Z,12.50
2018-01-29T15:48:25.672Z,12.50
2018-01-29T15:50:55.147Z,12.60
2018-01-29T15:53:24.973Z,12.60
2018-01-29T15:55:54.535Z,12.50
2018-01-29T15:58:24.807Z,11.60
2018-01-29T16:00:54.921Z,11.60
2018-01-29T16:03:25.015Z,11.50
2018-01-29T16:05:55.359Z,11.70
2018-01-29T16:08:24.998Z,11.80
2018-01-29T16:10:55.230Z,11.60
2018-01-29T16:13:25.047Z,11.50
2018-01-29T16:15:54.658Z,11.40
2018-01-29T16:18:24.894Z,11.10
2018-01-29T16:20:54.366Z,11.10
2018-01-29T16:23:24.744Z,11.10
2018-01-29T16:26:02.527Z,10.80
2018-01-29T16:28:33.024Z,10.40
2018-01-29T16:31:03.156Z,10.40
2018-01-29T16:33:34.735Z,10.10
2018-01-29T16:36:08.295Z,10.10
2018-01-29T16:38:44.319Z,9.90
2018-01-29T16:41:14.644Z,10.20
2018-01-29T16:43:44.399Z,9.90
2018-01-29T16:46:13.942Z,9.70
2018-01-29T16:48:43.476Z,9.00
2018-01-29T16:51:12.976Z,9.20
2018-01-29T16:53:42.939Z,9.40
2018-01-29T16:56:12.720Z,9.50
2018-01-29T16:58:42.727Z,9.30
2018-01-29T17:01:12.340Z,9.50
2018-01-29T17:03:43.019Z,8.90
2018-01-29T17:06:12.536Z,8.90
2018-01-29T17:08:42.044Z,8.70
2018-01-29T17:11:12.545Z,8.50
2018-01-29T17:13:42.081Z,8.50
2018-01-29T17:16:11.592Z,8.70
2018-01-29T17:18:41.105Z,8.50
2018-01-29T17:21:10.859Z,8.40
2018-01-29T17:23:42.323Z,8.30
2018-01-29T17:26:12.095Z,8.30
2018-01-29T17:28:42.001Z,8.30
2018-01-29T17:31:12.017Z,8.30
2018-01-29T17:33:41.428Z,8.50
2018-01-29T17:36:11.135Z,8.40
2018-01-29T17:38:41.097Z,8.10
2018-01-29T17:41:10.979Z,7.60
2018-01-29T17:43:40.969Z,7.90
2018-01-29T17:46:11.095Z,7.70
2018-01-29T17:48:41.675Z,7.70
2018-01-29T17:51:12.115Z,7.70
2018-01-29T17:53:42.757Z,7.70
2018-01-29T17:56:12.432Z,7.30
2018-01-29T17:58:42.165Z,7.30
2018-01-29T18:01:13.081Z,7.20
2018-01-29T18:03:42.899Z,7.10
2018-01-29T18:06:12.817Z,7.40
2018-01-29T18:08:42.778Z,7.50
2018-01-29T18:11:12.527Z,7.50
2018-01-29T18:13:42.047Z,7.20
2018-01-29T18:16:11.837Z,7.00
2018-01-29T18:18:42.036Z,7.00
2018-01-29T18:21:12.427Z,7.10
2018-01-29T18:23:42.065Z,7.10
2018-01-29T18:26:12.544Z,7.30
2018-01-29T18:28:42.109Z,7.30
2018-01-29T18:31:12.318Z,6.60
2018-01-29T18:33:41.814Z,6.50
2018-01-29T18:36:11.577Z,6.70
2018-01-29T18:38:41.230Z,6.70
2018-01-29T18:41:10.748Z,6.80
2018-01-29T18:43:40.413Z,6.60
2018-01-29T18:46:10.013Z,6.00
2018-01-29T18:48:39.446Z,5.90
2018-01-29T18:51:09.064Z,5.90
2018-01-29T18:53:41.007Z,5.70
2018-01-29T18:56:11.712Z,5.70
2018-01-29T18:58:41.552Z,5.70
2018-01-29T19:01:11.308Z,6.20
2018-01-29T19:03:41.364Z,6.30
2018-01-29T19:06:11.050Z,6.40
2018-01-29T19:08:41.225Z,6.10
2018-01-29T19:11:11.760Z,6.30
2018-01-29T19:40:58.627Z,6.30
